sensor_id;sensor_type;location;lat;lon;timestamp;temperature;humidity
23618;DHT22;18207;32.078;34.818;2022-11-06T00:00:52;27.10;42.80
23618;DHT22;18207;32.078;34.818;2022-11-06T00:03:24;27.10;42.80
23618;DHT22;18207;32.078;34.818;2022-11-06T00:05:54;27.10;42.80
23618;DHT22;18207;32.078;34.818;2022-11-06T00:08:42;27.10;42.80
23618;DHT22;18207;32.078;34.818;2022-11-06T00:11:14;27.10;42.80
23618;DHT22;18207;32.078;34.818;2022-11-06T00:13:45;27.10;42.80
23618;DHT22;18207;32.078;34.818;2022-11-06T00:16:16;27.10;42.80
23618;DHT22;18207;32.078;34.818;2022-11-06T00:18:49;27.10;42.80
23618;DHT22;18207;32.078;34.818;2022-11-06T00:21:22;27.10;42.90
23618;DHT22;18207;32.078;34.818;2022-11-06T00:23:56;27.00;42.90
23618;DHT22;18207;32.078;34.818;2022-11-06T00:26:29;27.00;42.90
23618;DHT22;18207;32.078;34.818;2022-11-06T00:29:01;27.10;42.90
23618;DHT22;18207;32.078;34.818;2022-11-06T00:31:35;27.00;42.90
23618;DHT22;18207;32.078;34.818;2022-11-06T00:34:08;27.00;42.90
23618;DHT22;18207;32.078;34.818;2022-11-06T00:36:39;27.00;42.90
23618;DHT22;18207;32.078;34.818;2022-11-06T00:39:10;27.00;42.90
23618;DHT22;18207;32.078;34.818;2022-11-06T00:41:40;27.00;42.90
23618;DHT22;18207;32.078;34.818;2022-11-06T00:44:11;26.90;42.80
23618;DHT22;18207;32.078;34.818;2022-11-06T00:46:42;26.90;42.90
23618;DHT22;18207;32.078;34.818;2022-11-06T00:49:16;26.90;42.90
23618;DHT22;18207;32.078;34.818;2022-11-06T00:51:46;26.90;42.90
23618;DHT22;18207;32.078;34.818;2022-11-06T00:54:17;26.90;42.90
23618;DHT22;18207;32.078;34.818;2022-11-06T00:56:47;26.90;42.90
23618;DHT22;18207;32.078;34.818;2022-11-06T00:59:18;26.90;42.90
23618;DHT22;18207;32.078;34.818;2022-11-06T01:01:48;26.90;43.00
23618;DHT22;18207;32.078;34.818;2022-11-06T01:04:22;26.90;43.00
23618;DHT22;18207;32.078;34.818;2022-11-06T01:06:54;26.90;43.00
23618;DHT22;18207;32.078;34.818;2022-11-06T01:09:26;26.90;43.00
23618;DHT22;18207;32.078;34.818;2022-11-06T01:11:58;26.90;43.00
23618;DHT22;18207;32.078;34.818;2022-11-06T01:14:44;26.80;43.00
23618;DHT22;18207;32.078;34.818;2022-11-06T01:17:15;26.90;43.10
23618;DHT22;18207;32.078;34.818;2022-11-06T01:19:48;26.80;43.10
23618;DHT22;18207;32.078;34.818;2022-11-06T01:22:18;26.80;43.10
23618;DHT22;18207;32.078;34.818;2022-11-06T01:24:49;26.80;43.10
23618;DHT22;18207;32.078;34.818;2022-11-06T01:27:18;26.80;43.10
23618;DHT22;18207;32.078;34.818;2022-11-06T01:29:54;26.80;43.10
23618;DHT22;18207;32.078;34.818;2022-11-06T01:32:25;26.80;43.10
23618;DHT22;18207;32.078;34.818;2022-11-06T01:34:56;26.80;43.10
23618;DHT22;18207;32.078;34.818;2022-11-06T01:37:26;26.80;43.20
23618;DHT22;18207;32.078;34.818;2022-11-06T01:39:57;26.80;43.20
23618;DHT22;18207;32.078;34.818;2022-11-06T01:42:30;26.70;43.10
23618;DHT22;18207;32.078;34.818;2022-11-06T01:45:14;26.80;43.20
23618;DHT22;18207;32.078;34.818;2022-11-06T01:47:58;26.80;43.30
23618;DHT22;18207;32.078;34.818;2022-11-06T01:50:31;26.80;43.20
23618;DHT22;18207;32.078;34.818;2022-11-06T01:53:02;26.80;43.20
23618;DHT22;18207;32.078;34.818;2022-11-06T01:55:41;26.70;43.20
23618;DHT22;18207;32.078;34.818;2022-11-06T01:58:17;26.80;43.20
23618;DHT22;18207;32.078;34.818;2022-11-06T02:00:50;26.80;43.30
23618;DHT22;18207;32.078;34.818;2022-11-06T02:03:21;26.80;43.20
23618;DHT22;18207;32.078;34.818;2022-11-06T02:05:54;26.80;43.30
23618;DHT22;18207;32.078;34.818;2022-11-06T02:08:26;26.80;43.30
23618;DHT22;18207;32.078;34.818;2022-11-06T02:10:57;26.70;43.20
23618;DHT22;18207;32.078;34.818;2022-11-06T02:13:36;26.80;43.30
23618;DHT22;18207;32.078;34.818;2022-11-06T02:16:20;26.70;43.20
23618;DHT22;18207;32.078;34.818;2022-11-06T02:19:12;26.80;43.30
23618;DHT22;18207;32.078;34.818;2022-11-06T02:22:17;26.70;43.20
23618;DHT22;18207;32.078;34.818;2022-11-06T02:25:14;26.70;43.20
23618;DHT22;18207;32.078;34.818;2022-11-06T02:27:58;26.70;43.30
23618;DHT22;18207;32.078;34.818;2022-11-06T02:30:33;26.70;43.30
23618;DHT22;18207;32.078;34.818;2022-11-06T02:33:13;26.70;43.30
23618;DHT22;18207;32.078;34.818;2022-11-06T02:35:51;26.70;43.30
23618;DHT22;18207;32.078;34.818;2022-11-06T02:38:30;26.70;43.40
23618;DHT22;18207;32.078;34.818;2022-11-06T02:41:07;26.70;43.40
23618;DHT22;18207;32.078;34.818;2022-11-06T02:43:44;26.70;43.40
23618;DHT22;18207;32.078;34.818;2022-11-06T02:46:23;26.70;43.40
23618;DHT22;18207;32.078;34.818;2022-11-06T02:48:59;26.70;43.40
23618;DHT22;18207;32.078;34.818;2022-11-06T02:51:37;26.70;43.40
23618;DHT22;18207;32.078;34.818;2022-11-06T02:54:13;26.70;43.40
23618;DHT22;18207;32.078;34.818;2022-11-06T02:56:48;26.70;43.40
23618;DHT22;18207;32.078;34.818;2022-11-06T02:59:27;26.70;43.50
23618;DHT22;18207;32.078;34.818;2022-11-06T03:02:04;26.70;43.50
23618;DHT22;18207;32.078;34.818;2022-11-06T03:04:44;26.70;43.50
23618;DHT22;18207;32.078;34.818;2022-11-06T03:07:26;26.70;43.60
23618;DHT22;18207;32.078;34.818;2022-11-06T03:10:02;26.70;43.60
23618;DHT22;18207;32.078;34.818;2022-11-06T03:12:43;26.70;43.60
23618;DHT22;18207;32.078;34.818;2022-11-06T03:15:25;26.70;43.60
23618;DHT22;18207;32.078;34.818;2022-11-06T03:18:08;26.70;43.60
23618;DHT22;18207;32.078;34.818;2022-11-06T03:20:53;26.70;43.60
23618;DHT22;18207;32.078;34.818;2022-11-06T03:23:34;26.70;43.60
23618;DHT22;18207;32.078;34.818;2022-11-06T03:26:13;26.70;43.60
23618;DHT22;18207;32.078;34.818;2022-11-06T03:28:51;26.70;43.60
23618;DHT22;18207;32.078;34.818;2022-11-06T03:31:32;26.70;43.60
23618;DHT22;18207;32.078;34.818;2022-11-06T03:34:09;26.70;43.60
23618;DHT22;18207;32.078;34.818;2022-11-06T03:36:47;26.60;43.50
23618;DHT22;18207;32.078;34.818;2022-11-06T03:39:27;26.60;43.50
23618;DHT22;18207;32.078;34.818;2022-11-06T03:42:04;26.60;43.60
23618;DHT22;18207;32.078;34.818;2022-11-06T03:44:41;26.60;43.50
23618;DHT22;18207;32.078;34.818;2022-11-06T03:47:21;26.60;43.50
23618;DHT22;18207;32.078;34.818;2022-11-06T03:50:01;26.60;43.70
23618;DHT22;18207;32.078;34.818;2022-11-06T03:52:36;26.60;43.70
23618;DHT22;18207;32.078;34.818;2022-11-06T03:55:13;26.60;43.70
23618;DHT22;18207;32.078;34.818;2022-11-06T03:57:49;26.60;43.80
23618;DHT22;18207;32.078;34.818;2022-11-06T04:00:24;26.60;43.80
23618;DHT22;18207;32.078;34.818;2022-11-06T04:03:02;26.60;43.80
23618;DHT22;18207;32.078;34.818;2022-11-06T04:05:39;26.60;43.90
23618;DHT22;18207;32.078;34.818;2022-11-06T04:08:16;26.60;43.90
23618;DHT22;18207;32.078;34.818;2022-11-06T04:11:06;26.60;43.90
23618;DHT22;18207;32.078;34.818;2022-11-06T04:13:56;26.70;43.80
23618;DHT22;18207;32.078;34.818;2022-11-06T04:16:45;26.70;43.80
23618;DHT22;18207;32.078;34.818;2022-11-06T04:19:22;26.60;43.80
23618;DHT22;18207;32.078;34.818;2022-11-06T04:22:02;26.60;43.80
23618;DHT22;18207;32.078;34.818;2022-11-06T04:24:55;26.60;43.90
23618;DHT22;18207;32.078;34.818;2022-11-06T04:27:58;26.60;43.90
23618;DHT22;18207;32.078;34.818;2022-11-06T04:30:54;26.60;44.00
23618;DHT22;18207;32.078;34.818;2022-11-06T04:33:35;26.60;44.00
23618;DHT22;18207;32.078;34.818;2022-11-06T04:36:19;26.70;44.10
23618;DHT22;18207;32.078;34.818;2022-11-06T04:39:03;26.70;44.20
23618;DHT22;18207;32.078;34.818;2022-11-06T04:41:46;26.70;44.20
23618;DHT22;18207;32.078;34.818;2022-11-06T04:44:28;26.70;44.80
23618;DHT22;18207;32.078;34.818;2022-11-06T04:47:05;26.70;44.20
23618;DHT22;18207;32.078;34.818;2022-11-06T04:49:38;26.80;44.30
23618;DHT22;18207;32.078;34.818;2022-11-06T04:52:16;26.80;44.40
23618;DHT22;18207;32.078;34.818;2022-11-06T04:54:49;26.90;44.50
23618;DHT22;18207;32.078;34.818;2022-11-06T04:57:21;26.90;45.10
23618;DHT22;18207;32.078;34.818;2022-11-06T04:59:52;27.00;44.50
23618;DHT22;18207;32.078;34.818;2022-11-06T05:02:24;27.10;44.60
23618;DHT22;18207;32.078;34.818;2022-11-06T05:04:55;27.10;44.60
23618;DHT22;18207;32.078;34.818;2022-11-06T05:07:27;27.30;44.80
23618;DHT22;18207;32.078;34.818;2022-11-06T05:09:58;27.30;44.80
23618;DHT22;18207;32.078;34.818;2022-11-06T05:12:29;27.50;44.80
23618;DHT22;18207;32.078;34.818;2022-11-06T05:15:00;27.60;44.70
23618;DHT22;18207;32.078;34.818;2022-11-06T05:17:31;27.70;44.70
23618;DHT22;18207;32.078;34.818;2022-11-06T05:20:04;27.80;44.70
23618;DHT22;18207;32.078;34.818;2022-11-06T05:22:42;28.00;44.70
23618;DHT22;18207;32.078;34.818;2022-11-06T05:25:29;28.10;44.70
23618;DHT22;18207;32.078;34.818;2022-11-06T05:28:02;28.20;44.60
23618;DHT22;18207;32.078;34.818;2022-11-06T05:30:35;28.30;44.50
23618;DHT22;18207;32.078;34.818;2022-11-06T05:33:06;28.50;44.50
23618;DHT22;18207;32.078;34.818;2022-11-06T05:35:37;28.60;44.40
23618;DHT22;18207;32.078;34.818;2022-11-06T05:38:10;28.70;44.30
23618;DHT22;18207;32.078;34.818;2022-11-06T05:40:42;28.90;44.20
23618;DHT22;18207;32.078;34.818;2022-11-06T05:43:13;29.00;44.20
23618;DHT22;18207;32.078;34.818;2022-11-06T05:45:44;29.10;44.00
23618;DHT22;18207;32.078;34.818;2022-11-06T05:48:14;29.20;43.90
23618;DHT22;18207;32.078;34.818;2022-11-06T05:50:45;29.40;44.00
23618;DHT22;18207;32.078;34.818;2022-11-06T05:53:18;29.40;43.80
23618;DHT22;18207;32.078;34.818;2022-11-06T05:55:48;29.60;43.80
23618;DHT22;18207;32.078;34.818;2022-11-06T05:58:18;29.70;43.60
23618;DHT22;18207;32.078;34.818;2022-11-06T06:00:50;29.80;43.50
23618;DHT22;18207;32.078;34.818;2022-11-06T06:03:22;29.90;43.40
23618;DHT22;18207;32.078;34.818;2022-11-06T06:05:53;30.00;43.40
23618;DHT22;18207;32.078;34.818;2022-11-06T06:08:25;30.20;43.40
23618;DHT22;18207;32.078;34.818;2022-11-06T06:10:55;30.30;43.20
23618;DHT22;18207;32.078;34.818;2022-11-06T06:13:26;30.40;43.20
23618;DHT22;18207;32.078;34.818;2022-11-06T06:16:00;30.50;43.20
23618;DHT22;18207;32.078;34.818;2022-11-06T06:18:31;30.60;43.10
23618;DHT22;18207;32.078;34.818;2022-11-06T06:21:02;30.80;43.20
23618;DHT22;18207;32.078;34.818;2022-11-06T06:23:34;30.90;43.10
23618;DHT22;18207;32.078;34.818;2022-11-06T06:26:05;31.10;43.10
23618;DHT22;18207;32.078;34.818;2022-11-06T06:28:36;31.10;42.90
23618;DHT22;18207;32.078;34.818;2022-11-06T06:31:07;31.30;42.80
23618;DHT22;18207;32.078;34.818;2022-11-06T06:33:39;31.40;42.60
23618;DHT22;18207;32.078;34.818;2022-11-06T06:36:10;31.60;42.60
23618;DHT22;18207;32.078;34.818;2022-11-06T06:38:43;31.70;42.30
23618;DHT22;18207;32.078;34.818;2022-11-06T06:41:14;31.80;42.30
23618;DHT22;18207;32.078;34.818;2022-11-06T06:43:46;31.90;42.30
23618;DHT22;18207;32.078;34.818;2022-11-06T06:46:17;32.00;42.10
23618;DHT22;18207;32.078;34.818;2022-11-06T06:48:48;32.10;42.00
23618;DHT22;18207;32.078;34.818;2022-11-06T06:51:19;32.20;41.90
23618;DHT22;18207;32.078;34.818;2022-11-06T06:53:52;32.20;41.60
23618;DHT22;18207;32.078;34.818;2022-11-06T06:56:22;32.30;41.50
23618;DHT22;18207;32.078;34.818;2022-11-06T06:58:53;32.30;41.40
23618;DHT22;18207;32.078;34.818;2022-11-06T07:01:24;32.40;41.30
23618;DHT22;18207;32.078;34.818;2022-11-06T07:03:55;32.40;41.90
23618;DHT22;18207;32.078;34.818;2022-11-06T07:06:30;32.40;41.20
23618;DHT22;18207;32.078;34.818;2022-11-06T07:09:03;32.50;41.20
23618;DHT22;18207;32.078;34.818;2022-11-06T07:11:35;32.60;41.30
23618;DHT22;18207;32.078;34.818;2022-11-06T07:14:06;32.60;41.30
23618;DHT22;18207;32.078;34.818;2022-11-06T07:16:39;32.70;41.30
23618;DHT22;18207;32.078;34.818;2022-11-06T07:19:09;32.80;41.30
23618;DHT22;18207;32.078;34.818;2022-11-06T07:21:40;32.90;41.20
23618;DHT22;18207;32.078;34.818;2022-11-06T07:24:13;33.00;41.10
23618;DHT22;18207;32.078;34.818;2022-11-06T07:26:44;33.00;41.10
23618;DHT22;18207;32.078;34.818;2022-11-06T07:29:16;33.10;41.10
23618;DHT22;18207;32.078;34.818;2022-11-06T07:31:47;33.10;41.00
23618;DHT22;18207;32.078;34.818;2022-11-06T07:34:17;33.20;41.00
23618;DHT22;18207;32.078;34.818;2022-11-06T07:36:47;33.30;41.10
23618;DHT22;18207;32.078;34.818;2022-11-06T07:39:19;33.40;41.00
23618;DHT22;18207;32.078;34.818;2022-11-06T07:41:49;33.50;41.00
23618;DHT22;18207;32.078;34.818;2022-11-06T07:44:19;33.60;41.10
23618;DHT22;18207;32.078;34.818;2022-11-06T07:46:50;33.70;40.90
23618;DHT22;18207;32.078;34.818;2022-11-06T07:49:21;33.70;40.60
23618;DHT22;18207;32.078;34.818;2022-11-06T07:51:52;33.70;40.40
23618;DHT22;18207;32.078;34.818;2022-11-06T07:54:25;33.70;40.30
23618;DHT22;18207;32.078;34.818;2022-11-06T07:56:56;33.80;40.20
23618;DHT22;18207;32.078;34.818;2022-11-06T07:59:27;33.80;40.20
23618;DHT22;18207;32.078;34.818;2022-11-06T08:02:05;33.80;40.10
23618;DHT22;18207;32.078;34.818;2022-11-06T08:04:44;33.80;39.90
23618;DHT22;18207;32.078;34.818;2022-11-06T08:07:15;33.90;39.80
23618;DHT22;18207;32.078;34.818;2022-11-06T08:09:48;33.80;39.80
23618;DHT22;18207;32.078;34.818;2022-11-06T08:12:17;33.90;39.70
23618;DHT22;18207;32.078;34.818;2022-11-06T08:14:48;33.80;39.40
23618;DHT22;18207;32.078;34.818;2022-11-06T08:17:21;33.80;39.30
23618;DHT22;18207;32.078;34.818;2022-11-06T08:19:53;33.70;39.20
23618;DHT22;18207;32.078;34.818;2022-11-06T08:22:26;33.60;39.10
23618;DHT22;18207;32.078;34.818;2022-11-06T08:24:59;33.50;39.10
23618;DHT22;18207;32.078;34.818;2022-11-06T08:27:30;33.40;39.20
23618;DHT22;18207;32.078;34.818;2022-11-06T08:30:01;33.30;39.40
23618;DHT22;18207;32.078;34.818;2022-11-06T08:32:33;33.20;39.50
23618;DHT22;18207;32.078;34.818;2022-11-06T08:35:05;33.20;39.70
23618;DHT22;18207;32.078;34.818;2022-11-06T08:37:36;33.20;39.90
23618;DHT22;18207;32.078;34.818;2022-11-06T08:40:11;33.20;39.90
23618;DHT22;18207;32.078;34.818;2022-11-06T08:42:42;33.20;39.90
23618;DHT22;18207;32.078;34.818;2022-11-06T08:45:13;33.30;40.00
23618;DHT22;18207;32.078;34.818;2022-11-06T08:47:43;33.20;39.90
23618;DHT22;18207;32.078;34.818;2022-11-06T08:50:13;33.30;40.60
23618;DHT22;18207;32.078;34.818;2022-11-06T08:52:44;33.30;40.00
23618;DHT22;18207;32.078;34.818;2022-11-06T08:55:17;33.30;40.00
23618;DHT22;18207;32.078;34.818;2022-11-06T08:57:48;33.30;40.00
23618;DHT22;18207;32.078;34.818;2022-11-06T09:00:27;33.30;40.00
23618;DHT22;18207;32.078;34.818;2022-11-06T09:03:20;33.30;40.00
23618;DHT22;18207;32.078;34.818;2022-11-06T09:05:51;33.30;39.90
23618;DHT22;18207;32.078;34.818;2022-11-06T09:08:25;33.20;39.70
23618;DHT22;18207;32.078;34.818;2022-11-06T09:10:58;33.20;39.70
23618;DHT22;18207;32.078;34.818;2022-11-06T09:13:28;33.20;39.70
23618;DHT22;18207;32.078;34.818;2022-11-06T09:15:59;33.10;39.70
23618;DHT22;18207;32.078;34.818;2022-11-06T09:18:30;33.10;39.70
23618;DHT22;18207;32.078;34.818;2022-11-06T09:21:01;33.10;39.70
23618;DHT22;18207;32.078;34.818;2022-11-06T09:23:32;33.10;39.70
23618;DHT22;18207;32.078;34.818;2022-11-06T09:26:05;33.00;39.70
23618;DHT22;18207;32.078;34.818;2022-11-06T09:28:35;33.00;39.70
23618;DHT22;18207;32.078;34.818;2022-11-06T09:31:05;33.00;39.80
23618;DHT22;18207;32.078;34.818;2022-11-06T09:33:36;32.90;39.70
23618;DHT22;18207;32.078;34.818;2022-11-06T09:36:07;32.90;39.70
23618;DHT22;18207;32.078;34.818;2022-11-06T09:38:38;32.90;39.80
23618;DHT22;18207;32.078;34.818;2022-11-06T09:41:18;32.80;39.80
23618;DHT22;18207;32.078;34.818;2022-11-06T09:44:03;32.80;39.80
23618;DHT22;18207;32.078;34.818;2022-11-06T09:47:01;32.80;39.80
23618;DHT22;18207;32.078;34.818;2022-11-06T09:49:44;32.80;39.80
23618;DHT22;18207;32.078;34.818;2022-11-06T09:52:21;32.70;39.70
23618;DHT22;18207;32.078;34.818;2022-11-06T09:55:02;32.70;39.70
23618;DHT22;18207;32.078;34.818;2022-11-06T09:57:44;32.70;39.80
23618;DHT22;18207;32.078;34.818;2022-11-06T10:00:18;32.60;39.80
23618;DHT22;18207;32.078;34.818;2022-11-06T10:02:50;32.60;39.90
23618;DHT22;18207;32.078;34.818;2022-11-06T10:05:25;32.50;39.90
23618;DHT22;18207;32.078;34.818;2022-11-06T10:08:01;32.40;39.90
23618;DHT22;18207;32.078;34.818;2022-11-06T10:10:37;32.40;40.00
23618;DHT22;18207;32.078;34.818;2022-11-06T10:13:31;32.30;39.90
23618;DHT22;18207;32.078;34.818;2022-11-06T10:16:17;32.30;40.00
23618;DHT22;18207;32.078;34.818;2022-11-06T10:19:05;32.30;40.10
23618;DHT22;18207;32.078;34.818;2022-11-06T10:21:46;32.20;40.10
23618;DHT22;18207;32.078;34.818;2022-11-06T10:24:21;32.20;40.20
23618;DHT22;18207;32.078;34.818;2022-11-06T10:26:57;32.10;40.80
23618;DHT22;18207;32.078;34.818;2022-11-06T10:29:44;32.10;40.20
23618;DHT22;18207;32.078;34.818;2022-11-06T10:32:52;32.10;40.40
23618;DHT22;18207;32.078;34.818;2022-11-06T10:35:40;32.00;40.40
23618;DHT22;18207;32.078;34.818;2022-11-06T10:38:22;32.00;40.40
23618;DHT22;18207;32.078;34.818;2022-11-06T10:40:54;31.90;40.50
23618;DHT22;18207;32.078;34.818;2022-11-06T10:43:29;31.90;40.60
23618;DHT22;18207;32.078;34.818;2022-11-06T10:46:14;31.80;40.60
23618;DHT22;18207;32.078;34.818;2022-11-06T10:48:51;31.80;40.70
23618;DHT22;18207;32.078;34.818;2022-11-06T10:51:51;31.80;40.70
23618;DHT22;18207;32.078;34.818;2022-11-06T10:54:45;31.70;40.70
23618;DHT22;18207;32.078;34.818;2022-11-06T10:57:34;31.70;40.80
23618;DHT22;18207;32.078;34.818;2022-11-06T11:00:11;31.70;40.80
23618;DHT22;18207;32.078;34.818;2022-11-06T11:02:48;31.60;40.80
23618;DHT22;18207;32.078;34.818;2022-11-06T11:05:23;31.60;41.00
23618;DHT22;18207;32.078;34.818;2022-11-06T11:07:56;31.60;41.00
23618;DHT22;18207;32.078;34.818;2022-11-06T11:10:28;31.60;41.60
23618;DHT22;18207;32.078;34.818;2022-11-06T11:13:01;31.60;41.00
23618;DHT22;18207;32.078;34.818;2022-11-06T11:15:42;31.50;41.00
23618;DHT22;18207;32.078;34.818;2022-11-06T11:18:21;31.50;41.10
23618;DHT22;18207;32.078;34.818;2022-11-06T11:21:08;31.40;41.20
23618;DHT22;18207;32.078;34.818;2022-11-06T11:23:43;31.40;41.20
23618;DHT22;18207;32.078;34.818;2022-11-06T11:26:18;31.40;41.20
23618;DHT22;18207;32.078;34.818;2022-11-06T11:28:55;31.40;41.20
23618;DHT22;18207;32.078;34.818;2022-11-06T11:31:28;31.30;41.20
23618;DHT22;18207;32.078;34.818;2022-11-06T11:34:04;31.30;41.30
23618;DHT22;18207;32.078;34.818;2022-11-06T11:36:48;31.30;41.30
23618;DHT22;18207;32.078;34.818;2022-11-06T11:39:24;31.20;41.20
23618;DHT22;18207;32.078;34.818;2022-11-06T11:42:15;31.20;41.40
23618;DHT22;18207;32.078;34.818;2022-11-06T11:45:13;31.10;41.40
23618;DHT22;18207;32.078;34.818;2022-11-06T11:47:46;31.10;41.50
23618;DHT22;18207;32.078;34.818;2022-11-06T11:50:26;31.10;41.50
23618;DHT22;18207;32.078;34.818;2022-11-06T11:53:04;31.00;41.60
23618;DHT22;18207;32.078;34.818;2022-11-06T11:55:45;31.00;41.70
23618;DHT22;18207;32.078;34.818;2022-11-06T11:58:21;30.90;41.70
23618;DHT22;18207;32.078;34.818;2022-11-06T12:00:55;30.90;41.70
23618;DHT22;18207;32.078;34.818;2022-11-06T12:03:33;30.90;41.70
23618;DHT22;18207;32.078;34.818;2022-11-06T12:06:13;30.90;41.70
23618;DHT22;18207;32.078;34.818;2022-11-06T12:08:48;30.80;41.60
23618;DHT22;18207;32.078;34.818;2022-11-06T12:11:23;30.80;41.80
23618;DHT22;18207;32.078;34.818;2022-11-06T12:14:17;30.80;41.80
23618;DHT22;18207;32.078;34.818;2022-11-06T12:16:59;30.70;41.90
23618;DHT22;18207;32.078;34.818;2022-11-06T12:19:36;30.70;41.80
23618;DHT22;18207;32.078;34.818;2022-11-06T12:22:18;30.70;41.90
23618;DHT22;18207;32.078;34.818;2022-11-06T12:24:57;30.70;42.00
23618;DHT22;18207;32.078;34.818;2022-11-06T12:27:34;30.70;42.00
23618;DHT22;18207;32.078;34.818;2022-11-06T12:30:10;30.70;42.10
23618;DHT22;18207;32.078;34.818;2022-11-06T12:33:02;30.70;42.10
23618;DHT22;18207;32.078;34.818;2022-11-06T12:35:44;30.70;42.10
23618;DHT22;18207;32.078;34.818;2022-11-06T12:38:25;30.60;42.10
23618;DHT22;18207;32.078;34.818;2022-11-06T12:41:03;30.60;42.80
23618;DHT22;18207;32.078;34.818;2022-11-06T12:43:41;30.60;42.20
23618;DHT22;18207;32.078;34.818;2022-11-06T12:46:26;30.60;42.20
23618;DHT22;18207;32.078;34.818;2022-11-06T12:49:28;30.60;42.30
23618;DHT22;18207;32.078;34.818;2022-11-06T12:52:19;30.60;42.40
23618;DHT22;18207;32.078;34.818;2022-11-06T12:55:13;30.50;42.40
23618;DHT22;18207;32.078;34.818;2022-11-06T12:58:03;30.50;42.50
23618;DHT22;18207;32.078;34.818;2022-11-06T13:00:53;30.50;42.50
23618;DHT22;18207;32.078;34.818;2022-11-06T13:03:56;30.50;42.50
23618;DHT22;18207;32.078;34.818;2022-11-06T13:07:18;30.50;42.60
23618;DHT22;18207;32.078;34.818;2022-11-06T13:10:42;30.50;42.60
23618;DHT22;18207;32.078;34.818;2022-11-06T13:13:32;30.50;42.60
23618;DHT22;18207;32.078;34.818;2022-11-06T13:16:15;30.50;42.60
23618;DHT22;18207;32.078;34.818;2022-11-06T13:19:00;30.40;42.60
23618;DHT22;18207;32.078;34.818;2022-11-06T13:22:06;30.40;42.60
23618;DHT22;18207;32.078;34.818;2022-11-06T13:24:47;30.40;42.70
23618;DHT22;18207;32.078;34.818;2022-11-06T13:27:30;30.40;42.70
23618;DHT22;18207;32.078;34.818;2022-11-06T13:30:13;30.40;42.70
23618;DHT22;18207;32.078;34.818;2022-11-06T13:33:00;30.40;42.80
23618;DHT22;18207;32.078;34.818;2022-11-06T13:35:37;30.30;42.80
23618;DHT22;18207;32.078;34.818;2022-11-06T13:38:14;30.30;42.70
23618;DHT22;18207;32.078;34.818;2022-11-06T13:40:51;30.30;42.80
23618;DHT22;18207;32.078;34.818;2022-11-06T13:43:34;30.20;42.80
23618;DHT22;18207;32.078;34.818;2022-11-06T13:46:18;30.20;42.90
23618;DHT22;18207;32.078;34.818;2022-11-06T13:49:05;30.20;42.90
23618;DHT22;18207;32.078;34.818;2022-11-06T13:51:50;30.20;42.90
23618;DHT22;18207;32.078;34.818;2022-11-06T13:54:40;30.20;42.90
23618;DHT22;18207;32.078;34.818;2022-11-06T14:00:57;30.10;43.00
23618;DHT22;18207;32.078;34.818;2022-11-06T14:06:42;30.10;42.90
23618;DHT22;18207;32.078;34.818;2022-11-06T14:09:17;30.10;42.90
23618;DHT22;18207;32.078;34.818;2022-11-06T14:11:52;30.10;43.00
23618;DHT22;18207;32.078;34.818;2022-11-06T14:14:25;30.00;43.00
23618;DHT22;18207;32.078;34.818;2022-11-06T14:17:18;30.00;43.00
23618;DHT22;18207;32.078;34.818;2022-11-06T14:20:01;30.00;43.10
23618;DHT22;18207;32.078;34.818;2022-11-06T14:22:35;30.00;43.10
23618;DHT22;18207;32.078;34.818;2022-11-06T14:28:28;29.90;43.20
23618;DHT22;18207;32.078;34.818;2022-11-06T14:31:00;29.90;43.20
23618;DHT22;18207;32.078;34.818;2022-11-06T14:41:58;29.80;43.20
23618;DHT22;18207;32.078;34.818;2022-11-06T14:44:48;29.80;43.20
23618;DHT22;18207;32.078;34.818;2022-11-06T14:47:28;29.80;43.30
23618;DHT22;18207;32.078;34.818;2022-11-06T14:50:22;29.80;43.30
23618;DHT22;18207;32.078;34.818;2022-11-06T14:52:55;29.70;43.30
23618;DHT22;18207;32.078;34.818;2022-11-06T14:55:31;29.80;43.40
23618;DHT22;18207;32.078;34.818;2022-11-06T14:58:16;29.80;43.40
23618;DHT22;18207;32.078;34.818;2022-11-06T15:00:51;29.70;43.40
23618;DHT22;18207;32.078;34.818;2022-11-06T15:03:27;29.70;43.40
23618;DHT22;18207;32.078;34.818;2022-11-06T15:06:17;29.70;43.50
23618;DHT22;18207;32.078;34.818;2022-11-06T15:09:04;29.70;43.60
23618;DHT22;18207;32.078;34.818;2022-11-06T15:11:53;29.70;43.50
23618;DHT22;18207;32.078;34.818;2022-11-06T15:14:53;29.70;43.60
23618;DHT22;18207;32.078;34.818;2022-11-06T15:17:32;29.70;43.60
23618;DHT22;18207;32.078;34.818;2022-11-06T15:20:28;29.70;43.50
23618;DHT22;18207;32.078;34.818;2022-11-06T15:23:09;29.70;43.60
23618;DHT22;18207;32.078;34.818;2022-11-06T15:25:55;29.70;43.60
23618;DHT22;18207;32.078;34.818;2022-11-06T15:28:38;29.60;43.50
23618;DHT22;18207;32.078;34.818;2022-11-06T15:31:16;29.60;43.60
23618;DHT22;18207;32.078;34.818;2022-11-06T15:33:57;29.60;43.60
23618;DHT22;18207;32.078;34.818;2022-11-06T15:36:36;29.60;43.70
23618;DHT22;18207;32.078;34.818;2022-11-06T15:39:22;29.60;43.70
23618;DHT22;18207;32.078;34.818;2022-11-06T15:42:01;29.60;43.80
23618;DHT22;18207;32.078;34.818;2022-11-06T15:44:39;29.50;43.60
23618;DHT22;18207;32.078;34.818;2022-11-06T15:47:21;29.50;43.70
23618;DHT22;18207;32.078;34.818;2022-11-06T15:50:11;29.50;43.80
23618;DHT22;18207;32.078;34.818;2022-11-06T16:00:44;29.50;43.80
23618;DHT22;18207;32.078;34.818;2022-11-06T16:03:18;29.50;43.80
23618;DHT22;18207;32.078;34.818;2022-11-06T16:05:52;29.50;43.90
23618;DHT22;18207;32.078;34.818;2022-11-06T16:08:27;29.50;43.90
23618;DHT22;18207;32.078;34.818;2022-11-06T16:11:00;29.40;43.90
23618;DHT22;18207;32.078;34.818;2022-11-06T16:13:39;29.40;43.90
23618;DHT22;18207;32.078;34.818;2022-11-06T16:16:31;29.40;44.00
23618;DHT22;18207;32.078;34.818;2022-11-06T16:27:19;29.40;44.00
23618;DHT22;18207;32.078;34.818;2022-11-06T16:29:54;29.40;43.90
23618;DHT22;18207;32.078;34.818;2022-11-06T16:32:29;29.40;44.00
23618;DHT22;18207;32.078;34.818;2022-11-06T16:35:30;29.40;44.10
23618;DHT22;18207;32.078;34.818;2022-11-06T16:38:27;29.30;44.20
23618;DHT22;18207;32.078;34.818;2022-11-06T16:41:10;29.30;44.20
23618;DHT22;18207;32.078;34.818;2022-11-06T16:44:21;29.30;44.20
23618;DHT22;18207;32.078;34.818;2022-11-06T16:47:13;29.30;44.30
23618;DHT22;18207;32.078;34.818;2022-11-06T16:53:54;29.30;44.30
23618;DHT22;18207;32.078;34.818;2022-11-06T16:56:28;29.40;44.30
23618;DHT22;18207;32.078;34.818;2022-11-06T16:59:02;29.30;44.20